createdAt,value
2024-02-02T00:13:35.548Z,98.38
2024-02-02T00:28:26.400Z,99.23
2024-02-02T00:43:18.327Z,99.44
2024-02-02T00:58:08.841Z,98.92
2024-02-02T01:12:59.696Z,99.25
2024-02-02T01:27:51.213Z,98.91
2024-02-02T01:42:41.890Z,98.36
2024-02-02T01:57:32.471Z,97.87
2024-02-02T02:12:24.606Z,100.00
2024-02-02T02:27:15.851Z,100.00
2024-02-02T02:42:06.717Z,100.00
2024-02-02T02:56:58.274Z,100.00
2024-02-02T03:27:13.738Z,100.00
2024-02-02T03:42:05.098Z,100.00
2024-02-02T03:56:58.467Z,100.00
2024-02-02T04:11:50.272Z,100.00
2024-02-02T04:26:43.198Z,100.00
2024-02-02T04:41:35.738Z,100.00
2024-02-02T04:56:28.623Z,100.00
2024-02-02T05:11:22.032Z,100.00
2024-02-02T05:26:15.366Z,100.00
2024-02-02T05:41:06.892Z,100.00
2024-02-02T05:55:58.234Z,100.00
2024-02-02T06:10:51.319Z,100.00
2024-02-02T06:25:43.798Z,100.00
2024-02-02T06:40:35.903Z,100.00
2024-02-02T07:10:19.745Z,100.00
2024-02-02T07:25:11.993Z,100.00
2024-02-02T10:09:53.664Z,92.86
2024-02-02T10:24:56.030Z,90.42
2024-02-02T10:40:07.879Z,87.83
2024-02-02T10:55:20.402Z,85.74
2024-02-02T12:24:47.290Z,71.18
2024-02-02T13:09:28.255Z,74.87
2024-02-02T13:24:22.990Z,75.49
2024-02-02T13:39:14.705Z,76.52
2024-02-02T13:54:07.231Z,76.21
2024-02-02T14:08:59.378Z,76.91
2024-02-02T14:23:50.651Z,76.19
2024-02-02T14:38:44.241Z,75.78
2024-02-02T14:53:38.756Z,75.91
2024-02-02T15:08:29.956Z,76.86
2024-02-02T15:23:21.699Z,78.34
2024-02-02T15:38:12.567Z,78.33
2024-02-02T15:53:02.837Z,78.77
2024-02-02T16:07:53.151Z,79.79
2024-02-02T16:22:45.261Z,81.28
2024-02-02T16:37:37.412Z,82.38
2024-02-02T16:52:29.286Z,82.86
2024-02-02T17:07:22.326Z,83.05
2024-02-02T17:22:14.396Z,83.31
2024-02-02T17:37:07.327Z,82.86
2024-02-02T17:51:59.998Z,82.99
2024-02-02T20:35:29.109Z,80.84
2024-02-02T20:50:20.262Z,81.43
2024-02-02T21:05:14.144Z,81.45
2024-02-02T21:20:09.420Z,80.81
2024-02-02T21:35:02.320Z,78.11
2024-02-02T21:49:54.691Z,76.10
2024-02-02T22:04:45.549Z,76.87
2024-02-02T22:19:39.606Z,76.91
2024-02-02T22:34:33.573Z,75.65
2024-02-02T22:49:25.947Z,75.30
2024-02-02T23:04:18.234Z,74.90
2024-02-02T23:19:10.083Z,75.40
2024-02-02T23:34:00.952Z,78.24
2024-02-02T23:48:51.837Z,81.04
